Terminal Aerodrome Forecast
Issued by NWS

Home | Current Version | Previous Version | Text Only | Print | Product List | Glossary On
Versions: 1 2 3 4 5 6 7 8 9 10 11 12 13 14 15 16 17 18 19
000
FTUS44 KCRP 010700 AAA
TAFALI
TAF AMD
KALI 010706Z 0107/0206 16005KT P6SM SCT022
      TEMPO 0107/0109 BKN022
     FM010900 VRB04KT P6SM SCT015
      TEMPO 0110/0113 4SM BR BKN015
     FM011500 16009KT P6SM SCT028
     FM011800 14014G22KT P6SM SCT050
     FM020100 15010KT P6SM FEW020=

USA.gov is the U.S. government's official web portal to all federal, state and local government web resources and services.